sensor_id;sensor_type;location;lat;lon;timestamp;P1;durP1;ratioP1;P2;durP2;ratioP2
76903;SDS011;65865;51.698;-0.292;2023-04-24T00:00:58;2.30;;;1.10;;
76903;SDS011;65865;51.698;-0.292;2023-04-24T00:03:26;2.78;;;1.15;;
76903;SDS011;65865;51.698;-0.292;2023-04-24T00:05:53;2.55;;;1.20;;
76903;SDS011;65865;51.698;-0.292;2023-04-24T00:08:19;2.20;;;1.15;;
76903;SDS011;65865;51.698;-0.292;2023-04-24T00:10:46;2.53;;;1.00;;
76903;SDS011;65865;51.698;-0.292;2023-04-24T00:13:12;2.33;;;1.10;;
76903;SDS011;65865;51.698;-0.292;2023-04-24T00:15:38;4.25;;;1.55;;
76903;SDS011;65865;51.698;-0.292;2023-04-24T00:18:04;1.98;;;1.10;;
76903;SDS011;65865;51.698;-0.292;2023-04-24T00:20:30;2.47;;;1.00;;
76903;SDS011;65865;51.698;-0.292;2023-04-24T00:23:00;2.28;;;0.95;;
76903;SDS011;65865;51.698;-0.292;2023-04-24T00:25:26;2.50;;;1.08;;
76903;SDS011;65865;51.698;-0.292;2023-04-24T00:27:52;3.75;;;1.00;;
76903;SDS011;65865;51.698;-0.292;2023-04-24T00:30:18;2.40;;;1.40;;
76903;SDS011;65865;51.698;-0.292;2023-04-24T00:32:44;3.40;;;1.55;;
76903;SDS011;65865;51.698;-0.292;2023-04-24T00:35:10;3.10;;;1.33;;
76903;SDS011;65865;51.698;-0.292;2023-04-24T00:37:36;2.70;;;1.05;;
76903;SDS011;65865;51.698;-0.292;2023-04-24T00:40:02;3.17;;;1.38;;
76903;SDS011;65865;51.698;-0.292;2023-04-24T00:42:28;2.63;;;1.10;;
76903;SDS011;65865;51.698;-0.292;2023-04-24T00:44:55;3.33;;;1.25;;
76903;SDS011;65865;51.698;-0.292;2023-04-24T00:47:22;2.53;;;1.08;;
76903;SDS011;65865;51.698;-0.292;2023-04-24T00:49:49;2.63;;;1.30;;
76903;SDS011;65865;51.698;-0.292;2023-04-24T00:52:15;3.10;;;1.25;;
76903;SDS011;65865;51.698;-0.292;2023-04-24T00:54:43;2.25;;;1.35;;
76903;SDS011;65865;51.698;-0.292;2023-04-24T00:57:10;2.70;;;1.27;;
76903;SDS011;65865;51.698;-0.292;2023-04-24T00:59:36;2.65;;;1.10;;
76903;SDS011;65865;51.698;-0.292;2023-04-24T01:02:02;2.60;;;1.13;;
76903;SDS011;65865;51.698;-0.292;2023-04-24T01:04:28;2.95;;;1.27;;
76903;SDS011;65865;51.698;-0.292;2023-04-24T01:06:54;2.40;;;1.20;;
76903;SDS011;65865;51.698;-0.292;2023-04-24T01:09:21;2.63;;;1.23;;
76903;SDS011;65865;51.698;-0.292;2023-04-24T01:11:48;2.67;;;1.10;;
76903;SDS011;65865;51.698;-0.292;2023-04-24T01:14:15;2.58;;;1.23;;
76903;SDS011;65865;51.698;-0.292;2023-04-24T01:16:41;2.25;;;1.00;;
76903;SDS011;65865;51.698;-0.292;2023-04-24T01:19:07;2.13;;;1.00;;
76903;SDS011;65865;51.698;-0.292;2023-04-24T01:21:36;3.00;;;1.20;;
76903;SDS011;65865;51.698;-0.292;2023-04-24T01:24:03;2.55;;;1.23;;
76903;SDS011;65865;51.698;-0.292;2023-04-24T01:26:29;2.65;;;1.13;;
76903;SDS011;65865;51.698;-0.292;2023-04-24T01:28:56;2.20;;;1.00;;
76903;SDS011;65865;51.698;-0.292;2023-04-24T01:31:22;2.20;;;1.08;;
76903;SDS011;65865;51.698;-0.292;2023-04-24T01:33:48;2.42;;;1.20;;
76903;SDS011;65865;51.698;-0.292;2023-04-24T01:36:15;2.35;;;1.23;;
76903;SDS011;65865;51.698;-0.292;2023-04-24T01:38:42;2.83;;;1.10;;
76903;SDS011;65865;51.698;-0.292;2023-04-24T01:41:08;2.53;;;1.00;;
76903;SDS011;65865;51.698;-0.292;2023-04-24T01:43:34;2.67;;;1.27;;
76903;SDS011;65865;51.698;-0.292;2023-04-24T01:46:00;2.92;;;1.00;;
76903;SDS011;65865;51.698;-0.292;2023-04-24T01:48:26;2.42;;;1.13;;
76903;SDS011;65865;51.698;-0.292;2023-04-24T01:50:52;2.30;;;1.00;;
76903;SDS011;65865;51.698;-0.292;2023-04-24T01:53:18;2.50;;;1.08;;
76903;SDS011;65865;51.698;-0.292;2023-04-24T01:55:45;2.13;;;1.10;;
76903;SDS011;65865;51.698;-0.292;2023-04-24T01:58:11;2.55;;;1.15;;
76903;SDS011;65865;51.698;-0.292;2023-04-24T02:00:37;3.00;;;1.20;;
76903;SDS011;65865;51.698;-0.292;2023-04-24T02:03:03;2.60;;;1.10;;
76903;SDS011;65865;51.698;-0.292;2023-04-24T02:05:29;2.92;;;1.08;;
76903;SDS011;65865;51.698;-0.292;2023-04-24T02:07:55;2.55;;;1.15;;
76903;SDS011;65865;51.698;-0.292;2023-04-24T02:10:21;1.92;;;0.93;;
76903;SDS011;65865;51.698;-0.292;2023-04-24T02:12:47;2.45;;;1.10;;
76903;SDS011;65865;51.698;-0.292;2023-04-24T02:15:14;2.65;;;1.10;;
76903;SDS011;65865;51.698;-0.292;2023-04-24T02:17:41;2.80;;;1.20;;
76903;SDS011;65865;51.698;-0.292;2023-04-24T02:20:07;2.25;;;1.23;;
76903;SDS011;65865;51.698;-0.292;2023-04-24T02:22:33;2.33;;;1.10;;
76903;SDS011;65865;51.698;-0.292;2023-04-24T02:24:59;2.47;;;1.13;;
76903;SDS011;65865;51.698;-0.292;2023-04-24T02:27:26;2.10;;;0.90;;
76903;SDS011;65865;51.698;-0.292;2023-04-24T02:29:52;2.35;;;1.10;;
76903;SDS011;65865;51.698;-0.292;2023-04-24T02:32:18;1.75;;;0.88;;
76903;SDS011;65865;51.698;-0.292;2023-04-24T02:34:44;2.40;;;1.00;;
76903;SDS011;65865;51.698;-0.292;2023-04-24T02:37:10;2.35;;;1.00;;
76903;SDS011;65865;51.698;-0.292;2023-04-24T02:39:36;1.98;;;0.80;;
76903;SDS011;65865;51.698;-0.292;2023-04-24T02:42:02;1.85;;;0.98;;
76903;SDS011;65865;51.698;-0.292;2023-04-24T02:44:28;1.70;;;0.82;;
76903;SDS011;65865;51.698;-0.292;2023-04-24T02:46:54;1.92;;;0.93;;
76903;SDS011;65865;51.698;-0.292;2023-04-24T02:49:20;2.03;;;1.02;;
76903;SDS011;65865;51.698;-0.292;2023-04-24T02:51:46;1.90;;;1.00;;
76903;SDS011;65865;51.698;-0.292;2023-04-24T02:54:12;2.58;;;1.20;;
76903;SDS011;65865;51.698;-0.292;2023-04-24T02:56:38;1.80;;;0.82;;
76903;SDS011;65865;51.698;-0.292;2023-04-24T02:59:04;2.15;;;0.90;;
76903;SDS011;65865;51.698;-0.292;2023-04-24T03:06:31;2.22;;;0.80;;
76903;SDS011;65865;51.698;-0.292;2023-04-24T03:08:57;2.03;;;0.73;;
76903;SDS011;65865;51.698;-0.292;2023-04-24T03:11:23;3.53;;;0.85;;
76903;SDS011;65865;51.698;-0.292;2023-04-24T03:13:50;2.28;;;0.80;;
76903;SDS011;65865;51.698;-0.292;2023-04-24T03:16:16;2.03;;;0.90;;
76903;SDS011;65865;51.698;-0.292;2023-04-24T03:18:42;2.55;;;1.02;;
76903;SDS011;65865;51.698;-0.292;2023-04-24T03:21:08;1.90;;;1.13;;
76903;SDS011;65865;51.698;-0.292;2023-04-24T03:23:34;1.85;;;1.00;;
76903;SDS011;65865;51.698;-0.292;2023-04-24T03:26:00;1.60;;;1.02;;
76903;SDS011;65865;51.698;-0.292;2023-04-24T03:28:27;2.47;;;1.20;;
76903;SDS011;65865;51.698;-0.292;2023-04-24T03:30:53;2.10;;;0.82;;
76903;SDS011;65865;51.698;-0.292;2023-04-24T03:33:19;2.13;;;0.90;;
76903;SDS011;65865;51.698;-0.292;2023-04-24T03:35:45;2.13;;;1.00;;
76903;SDS011;65865;51.698;-0.292;2023-04-24T03:38:11;2.22;;;0.90;;
76903;SDS011;65865;51.698;-0.292;2023-04-24T03:40:37;2.78;;;0.88;;
76903;SDS011;65865;51.698;-0.292;2023-04-24T03:43:03;2.45;;;1.00;;
76903;SDS011;65865;51.698;-0.292;2023-04-24T03:45:29;2.08;;;1.10;;
76903;SDS011;65865;51.698;-0.292;2023-04-24T03:47:55;1.70;;;0.90;;
76903;SDS011;65865;51.698;-0.292;2023-04-24T03:50:21;1.60;;;0.70;;
76903;SDS011;65865;51.698;-0.292;2023-04-24T03:52:47;1.85;;;0.85;;
76903;SDS011;65865;51.698;-0.292;2023-04-24T03:55:13;1.60;;;0.75;;
76903;SDS011;65865;51.698;-0.292;2023-04-24T03:57:40;2.58;;;0.82;;
76903;SDS011;65865;51.698;-0.292;2023-04-24T04:00:06;2.33;;;1.13;;
76903;SDS011;65865;51.698;-0.292;2023-04-24T04:02:33;1.38;;;0.70;;
76903;SDS011;65865;51.698;-0.292;2023-04-24T04:04:59;2.40;;;0.98;;
76903;SDS011;65865;51.698;-0.292;2023-04-24T04:07:25;1.92;;;1.00;;
76903;SDS011;65865;51.698;-0.292;2023-04-24T04:09:51;2.33;;;1.20;;
76903;SDS011;65865;51.698;-0.292;2023-04-24T04:12:17;2.10;;;0.82;;
76903;SDS011;65865;51.698;-0.292;2023-04-24T04:14:43;2.25;;;0.90;;
76903;SDS011;65865;51.698;-0.292;2023-04-24T04:17:09;1.73;;;0.90;;
76903;SDS011;65865;51.698;-0.292;2023-04-24T04:19:35;4.13;;;1.08;;
76903;SDS011;65865;51.698;-0.292;2023-04-24T04:22:02;2.25;;;0.95;;
76903;SDS011;65865;51.698;-0.292;2023-04-24T04:24:28;2.40;;;0.80;;
76903;SDS011;65865;51.698;-0.292;2023-04-24T04:26:54;2.47;;;1.23;;
76903;SDS011;65865;51.698;-0.292;2023-04-24T04:29:21;1.27;;;0.77;;
76903;SDS011;65865;51.698;-0.292;2023-04-24T04:31:48;2.10;;;0.80;;
76903;SDS011;65865;51.698;-0.292;2023-04-24T04:34:14;1.83;;;0.80;;
76903;SDS011;65865;51.698;-0.292;2023-04-24T04:36:41;1.98;;;0.85;;
76903;SDS011;65865;51.698;-0.292;2023-04-24T04:39:07;1.77;;;0.95;;
76903;SDS011;65865;51.698;-0.292;2023-04-24T04:41:34;2.55;;;1.00;;
76903;SDS011;65865;51.698;-0.292;2023-04-24T04:44:00;2.10;;;0.95;;
76903;SDS011;65865;51.698;-0.292;2023-04-24T04:46:26;2.17;;;1.00;;
76903;SDS011;65865;51.698;-0.292;2023-04-24T04:48:53;1.60;;;0.70;;
76903;SDS011;65865;51.698;-0.292;2023-04-24T04:51:19;2.25;;;0.90;;
76903;SDS011;65865;51.698;-0.292;2023-04-24T04:53:45;2.00;;;0.80;;
76903;SDS011;65865;51.698;-0.292;2023-04-24T04:56:11;1.67;;;0.82;;
76903;SDS011;65865;51.698;-0.292;2023-04-24T04:58:37;1.92;;;0.88;;
76903;SDS011;65865;51.698;-0.292;2023-04-24T05:01:03;2.08;;;0.80;;
76903;SDS011;65865;51.698;-0.292;2023-04-24T05:03:29;2.30;;;0.68;;
76903;SDS011;65865;51.698;-0.292;2023-04-24T05:05:55;2.08;;;1.10;;
76903;SDS011;65865;51.698;-0.292;2023-04-24T05:08:23;2.65;;;0.80;;
76903;SDS011;65865;51.698;-0.292;2023-04-24T05:10:49;2.10;;;0.80;;
76903;SDS011;65865;51.698;-0.292;2023-04-24T05:13:15;2.00;;;0.70;;
76903;SDS011;65865;51.698;-0.292;2023-04-24T05:15:41;2.88;;;0.70;;
76903;SDS011;65865;51.698;-0.292;2023-04-24T05:18:07;1.35;;;0.90;;
76903;SDS011;65865;51.698;-0.292;2023-04-24T05:20:33;1.75;;;0.75;;
76903;SDS011;65865;51.698;-0.292;2023-04-24T05:22:59;2.03;;;0.70;;
76903;SDS011;65865;51.698;-0.292;2023-04-24T05:25:25;2.83;;;0.70;;
76903;SDS011;65865;51.698;-0.292;2023-04-24T05:27:51;2.38;;;0.80;;
76903;SDS011;65865;51.698;-0.292;2023-04-24T05:30:18;2.17;;;0.80;;
76903;SDS011;65865;51.698;-0.292;2023-04-24T05:32:44;3.42;;;1.25;;
76903;SDS011;65865;51.698;-0.292;2023-04-24T05:35:10;2.67;;;0.85;;
76903;SDS011;65865;51.698;-0.292;2023-04-24T05:37:37;2.28;;;0.73;;
76903;SDS011;65865;51.698;-0.292;2023-04-24T05:40:03;2.15;;;0.80;;
76903;SDS011;65865;51.698;-0.292;2023-04-24T05:42:30;2.90;;;0.75;;
76903;SDS011;65865;51.698;-0.292;2023-04-24T05:44:56;2.17;;;0.80;;
76903;SDS011;65865;51.698;-0.292;2023-04-24T05:47:22;1.52;;;0.70;;
76903;SDS011;65865;51.698;-0.292;2023-04-24T05:49:49;1.10;;;0.60;;
76903;SDS011;65865;51.698;-0.292;2023-04-24T05:52:15;2.40;;;0.60;;
76903;SDS011;65865;51.698;-0.292;2023-04-24T05:54:41;1.52;;;0.60;;
76903;SDS011;65865;51.698;-0.292;2023-04-24T05:57:06;1.70;;;0.77;;
76903;SDS011;65865;51.698;-0.292;2023-04-24T05:59:33;2.72;;;0.65;;
76903;SDS011;65865;51.698;-0.292;2023-04-24T06:01:59;2.30;;;0.90;;
76903;SDS011;65865;51.698;-0.292;2023-04-24T06:04:25;2.38;;;1.02;;
76903;SDS011;65865;51.698;-0.292;2023-04-24T06:06:51;2.22;;;0.70;;
76903;SDS011;65865;51.698;-0.292;2023-04-24T06:09:21;2.58;;;0.90;;
76903;SDS011;65865;51.698;-0.292;2023-04-24T06:11:47;1.70;;;0.63;;
76903;SDS011;65865;51.698;-0.292;2023-04-24T06:14:13;1.20;;;0.47;;
76903;SDS011;65865;51.698;-0.292;2023-04-24T06:16:40;2.97;;;0.70;;
76903;SDS011;65865;51.698;-0.292;2023-04-24T06:19:06;2.13;;;0.70;;
76903;SDS011;65865;51.698;-0.292;2023-04-24T06:21:32;1.85;;;0.63;;
76903;SDS011;65865;51.698;-0.292;2023-04-24T06:23:58;2.03;;;0.82;;
76903;SDS011;65865;51.698;-0.292;2023-04-24T06:26:24;1.63;;;0.60;;
76903;SDS011;65865;51.698;-0.292;2023-04-24T06:28:51;2.20;;;0.70;;
76903;SDS011;65865;51.698;-0.292;2023-04-24T06:31:18;1.95;;;0.60;;
76903;SDS011;65865;51.698;-0.292;2023-04-24T06:33:44;2.17;;;0.70;;
76903;SDS011;65865;51.698;-0.292;2023-04-24T06:36:11;2.05;;;0.60;;
76903;SDS011;65865;51.698;-0.292;2023-04-24T06:38:37;1.92;;;0.65;;
76903;SDS011;65865;51.698;-0.292;2023-04-24T06:41:03;3.40;;;0.80;;
76903;SDS011;65865;51.698;-0.292;2023-04-24T06:43:30;2.30;;;0.82;;
76903;SDS011;65865;51.698;-0.292;2023-04-24T06:45:57;1.42;;;0.50;;
76903;SDS011;65865;51.698;-0.292;2023-04-24T06:48:23;1.35;;;0.55;;
76903;SDS011;65865;51.698;-0.292;2023-04-24T06:50:50;1.70;;;0.52;;
76903;SDS011;65865;51.698;-0.292;2023-04-24T06:53:16;4.65;;;0.80;;
76903;SDS011;65865;51.698;-0.292;2023-04-24T06:55:42;1.75;;;0.90;;
76903;SDS011;65865;51.698;-0.292;2023-04-24T06:58:10;1.90;;;0.50;;
76903;SDS011;65865;51.698;-0.292;2023-04-24T07:00:36;1.75;;;0.60;;
76903;SDS011;65865;51.698;-0.292;2023-04-24T07:03:02;3.15;;;0.68;;
76903;SDS011;65865;51.698;-0.292;2023-04-24T07:05:30;4.28;;;1.23;;
76903;SDS011;65865;51.698;-0.292;2023-04-24T07:07:56;2.78;;;0.60;;
76903;SDS011;65865;51.698;-0.292;2023-04-24T07:10:25;3.95;;;0.80;;
76903;SDS011;65865;51.698;-0.292;2023-04-24T07:12:53;2.88;;;0.63;;
76903;SDS011;65865;51.698;-0.292;2023-04-24T07:15:19;3.30;;;0.70;;
76903;SDS011;65865;51.698;-0.292;2023-04-24T07:17:45;2.70;;;0.65;;
76903;SDS011;65865;51.698;-0.292;2023-04-24T07:20:11;2.08;;;0.70;;
76903;SDS011;65865;51.698;-0.292;2023-04-24T07:22:39;3.00;;;0.70;;
76903;SDS011;65865;51.698;-0.292;2023-04-24T07:25:05;1.67;;;0.50;;
76903;SDS011;65865;51.698;-0.292;2023-04-24T07:27:31;3.30;;;0.60;;
76903;SDS011;65865;51.698;-0.292;2023-04-24T07:29:58;1.75;;;0.50;;
76903;SDS011;65865;51.698;-0.292;2023-04-24T07:32:24;2.78;;;0.70;;
76903;SDS011;65865;51.698;-0.292;2023-04-24T07:34:50;2.58;;;0.68;;
76903;SDS011;65865;51.698;-0.292;2023-04-24T07:37:16;3.05;;;0.60;;
76903;SDS011;65865;51.698;-0.292;2023-04-24T07:39:42;3.08;;;0.68;;
76903;SDS011;65865;51.698;-0.292;2023-04-24T07:42:08;2.45;;;0.45;;
76903;SDS011;65865;51.698;-0.292;2023-04-24T07:44:34;3.08;;;0.40;;
76903;SDS011;65865;51.698;-0.292;2023-04-24T07:47:01;3.95;;;0.60;;
76903;SDS011;65865;51.698;-0.292;2023-04-24T07:49:27;2.72;;;0.50;;
76903;SDS011;65865;51.698;-0.292;2023-04-24T07:51:53;2.42;;;0.57;;
76903;SDS011;65865;51.698;-0.292;2023-04-24T07:54:19;2.42;;;0.55;;
76903;SDS011;65865;51.698;-0.292;2023-04-24T07:56:45;2.78;;;0.70;;
76903;SDS011;65865;51.698;-0.292;2023-04-24T07:59:11;2.70;;;0.82;;
76903;SDS011;65865;51.698;-0.292;2023-04-24T08:01:38;2.30;;;0.50;;
76903;SDS011;65865;51.698;-0.292;2023-04-24T08:04:04;1.98;;;0.40;;
76903;SDS011;65865;51.698;-0.292;2023-04-24T08:06:30;4.13;;;0.60;;
76903;SDS011;65865;51.698;-0.292;2023-04-24T08:08:57;3.08;;;0.60;;
76903;SDS011;65865;51.698;-0.292;2023-04-24T08:11:23;2.72;;;0.43;;
76903;SDS011;65865;51.698;-0.292;2023-04-24T08:13:49;3.33;;;0.57;;
76903;SDS011;65865;51.698;-0.292;2023-04-24T08:16:15;1.77;;;0.70;;
76903;SDS011;65865;51.698;-0.292;2023-04-24T08:18:41;5.70;;;0.80;;
76903;SDS011;65865;51.698;-0.292;2023-04-24T08:21:07;5.03;;;0.85;;
76903;SDS011;65865;51.698;-0.292;2023-04-24T08:23:33;7.03;;;0.50;;
76903;SDS011;65865;51.698;-0.292;2023-04-24T08:25:59;2.58;;;0.63;;
76903;SDS011;65865;51.698;-0.292;2023-04-24T08:28:25;3.60;;;0.70;;
76903;SDS011;65865;51.698;-0.292;2023-04-24T08:30:52;2.22;;;0.47;;
76903;SDS011;65865;51.698;-0.292;2023-04-24T08:33:20;3.88;;;0.80;;
76903;SDS011;65865;51.698;-0.292;2023-04-24T08:35:46;6.40;;;0.88;;
76903;SDS011;65865;51.698;-0.292;2023-04-24T08:38:12;3.65;;;0.75;;
76903;SDS011;65865;51.698;-0.292;2023-04-24T08:40:38;2.08;;;0.70;;
76903;SDS011;65865;51.698;-0.292;2023-04-24T08:43:04;3.28;;;0.70;;
76903;SDS011;65865;51.698;-0.292;2023-04-24T08:45:31;3.17;;;0.77;;
76903;SDS011;65865;51.698;-0.292;2023-04-24T08:47:58;3.97;;;0.55;;
76903;SDS011;65865;51.698;-0.292;2023-04-24T08:50:25;6.88;;;0.68;;
76903;SDS011;65865;51.698;-0.292;2023-04-24T08:52:52;2.17;;;0.50;;
76903;SDS011;65865;51.698;-0.292;2023-04-24T08:55:18;2.47;;;0.73;;
76903;SDS011;65865;51.698;-0.292;2023-04-24T08:57:45;5.25;;;0.88;;
76903;SDS011;65865;51.698;-0.292;2023-04-24T09:00:14;4.75;;;1.08;;
76903;SDS011;65865;51.698;-0.292;2023-04-24T09:02:43;4.45;;;1.00;;
76903;SDS011;65865;51.698;-0.292;2023-04-24T09:05:09;2.88;;;0.75;;
76903;SDS011;65865;51.698;-0.292;2023-04-24T09:07:36;5.68;;;0.98;;
76903;SDS011;65865;51.698;-0.292;2023-04-24T09:10:05;4.78;;;0.80;;
76903;SDS011;65865;51.698;-0.292;2023-04-24T09:12:32;3.55;;;0.90;;
76903;SDS011;65865;51.698;-0.292;2023-04-24T09:14:58;6.30;;;1.05;;
76903;SDS011;65865;51.698;-0.292;2023-04-24T09:17:25;7.43;;;1.15;;
76903;SDS011;65865;51.698;-0.292;2023-04-24T09:19:53;5.82;;;0.70;;
76903;SDS011;65865;51.698;-0.292;2023-04-24T09:22:19;3.97;;;0.75;;
76903;SDS011;65865;51.698;-0.292;2023-04-24T09:24:45;5.32;;;0.88;;
76903;SDS011;65865;51.698;-0.292;2023-04-24T09:27:12;11.43;;;1.13;;
76903;SDS011;65865;51.698;-0.292;2023-04-24T09:29:38;5.28;;;0.70;;
76903;SDS011;65865;51.698;-0.292;2023-04-24T09:32:38;3.80;;;0.80;;
76903;SDS011;65865;51.698;-0.292;2023-04-24T09:37:29;11.55;;;1.88;;
76903;SDS011;65865;51.698;-0.292;2023-04-24T09:40:08;7.78;;;0.90;;
76903;SDS011;65865;51.698;-0.292;2023-04-24T09:42:36;3.20;;;0.73;;
76903;SDS011;65865;51.698;-0.292;2023-04-24T09:45:02;5.03;;;0.90;;
76903;SDS011;65865;51.698;-0.292;2023-04-24T09:47:35;6.80;;;1.00;;
76903;SDS011;65865;51.698;-0.292;2023-04-24T09:50:08;5.68;;;0.90;;
76903;SDS011;65865;51.698;-0.292;2023-04-24T09:52:34;4.95;;;1.02;;
76903;SDS011;65865;51.698;-0.292;2023-04-24T09:55:00;4.28;;;0.70;;
76903;SDS011;65865;51.698;-0.292;2023-04-24T09:57:27;4.57;;;0.80;;
76903;SDS011;65865;51.698;-0.292;2023-04-24T09:59:53;2.40;;;0.88;;
76903;SDS011;65865;51.698;-0.292;2023-04-24T10:02:19;3.90;;;0.65;;
76903;SDS011;65865;51.698;-0.292;2023-04-24T10:04:55;4.28;;;0.80;;
76903;SDS011;65865;51.698;-0.292;2023-04-24T10:07:21;4.13;;;0.70;;
76903;SDS011;65865;51.698;-0.292;2023-04-24T10:09:47;5.07;;;0.70;;
76903;SDS011;65865;51.698;-0.292;2023-04-24T10:12:13;3.25;;;0.75;;
76903;SDS011;65865;51.698;-0.292;2023-04-24T10:14:40;4.60;;;0.70;;
76903;SDS011;65865;51.698;-0.292;2023-04-24T10:17:06;3.05;;;0.93;;
76903;SDS011;65865;51.698;-0.292;2023-04-24T10:19:33;3.65;;;0.52;;
76903;SDS011;65865;51.698;-0.292;2023-04-24T10:22:00;3.13;;;0.50;;
76903;SDS011;65865;51.698;-0.292;2023-04-24T10:24:26;2.97;;;0.60;;
76903;SDS011;65865;51.698;-0.292;2023-04-24T10:26:53;6.32;;;0.80;;
76903;SDS011;65865;51.698;-0.292;2023-04-24T10:29:21;3.75;;;0.80;;
76903;SDS011;65865;51.698;-0.292;2023-04-24T10:31:48;2.50;;;0.80;;
76903;SDS011;65865;51.698;-0.292;2023-04-24T10:34:14;3.10;;;0.70;;
76903;SDS011;65865;51.698;-0.292;2023-04-24T10:36:45;4.65;;;1.15;;
76903;SDS011;65865;51.698;-0.292;2023-04-24T10:39:13;3.75;;;0.70;;
76903;SDS011;65865;51.698;-0.292;2023-04-24T10:41:40;4.22;;;0.75;;
76903;SDS011;65865;51.698;-0.292;2023-04-24T10:46:35;3.17;;;0.50;;
76903;SDS011;65865;51.698;-0.292;2023-04-24T10:49:07;4.50;;;0.70;;
76903;SDS011;65865;51.698;-0.292;2023-04-24T10:51:49;4.47;;;0.82;;
76903;SDS011;65865;51.698;-0.292;2023-04-24T10:54:22;4.65;;;1.00;;
76903;SDS011;65865;51.698;-0.292;2023-04-24T10:56:50;3.97;;;0.60;;
76903;SDS011;65865;51.698;-0.292;2023-04-24T10:59:23;3.72;;;0.60;;
76903;SDS011;65865;51.698;-0.292;2023-04-24T11:01:53;2.28;;;0.60;;
76903;SDS011;65865;51.698;-0.292;2023-04-24T11:04:31;3.28;;;0.80;;
76903;SDS011;65865;51.698;-0.292;2023-04-24T11:06:57;3.35;;;0.60;;
76903;SDS011;65865;51.698;-0.292;2023-04-24T11:09:26;5.80;;;0.60;;
76903;SDS011;65865;51.698;-0.292;2023-04-24T11:11:53;3.65;;;1.02;;
76903;SDS011;65865;51.698;-0.292;2023-04-24T11:14:28;7.25;;;0.70;;
76903;SDS011;65865;51.698;-0.292;2023-04-24T11:16:54;4.18;;;0.70;;
76903;SDS011;65865;51.698;-0.292;2023-04-24T11:19:29;3.83;;;0.60;;
76903;SDS011;65865;51.698;-0.292;2023-04-24T11:26:48;4.32;;;0.88;;
76903;SDS011;65865;51.698;-0.292;2023-04-24T11:29:14;3.95;;;0.70;;
76903;SDS011;65865;51.698;-0.292;2023-04-24T11:31:40;3.38;;;0.70;;
76903;SDS011;65865;51.698;-0.292;2023-04-24T11:34:11;5.28;;;1.20;;
76903;SDS011;65865;51.698;-0.292;2023-04-24T11:36:37;3.67;;;0.85;;
76903;SDS011;65865;51.698;-0.292;2023-04-24T11:39:04;10.10;;;1.10;;
76903;SDS011;65865;51.698;-0.292;2023-04-24T11:41:30;7.13;;;0.80;;
76903;SDS011;65865;51.698;-0.292;2023-04-24T11:43:56;7.00;;;1.50;;
76903;SDS011;65865;51.698;-0.292;2023-04-24T11:46:22;6.05;;;0.88;;
76903;SDS011;65865;51.698;-0.292;2023-04-24T11:48:49;5.03;;;1.30;;
76903;SDS011;65865;51.698;-0.292;2023-04-24T11:51:15;3.53;;;0.80;;
76903;SDS011;65865;51.698;-0.292;2023-04-24T11:53:41;5.00;;;1.20;;
76903;SDS011;65865;51.698;-0.292;2023-04-24T11:56:08;7.68;;;1.40;;
76903;SDS011;65865;51.698;-0.292;2023-04-24T12:01:01;3.45;;;0.70;;
76903;SDS011;65865;51.698;-0.292;2023-04-24T12:03:27;2.50;;;0.80;;
76903;SDS011;65865;51.698;-0.292;2023-04-24T12:05:59;3.65;;;0.70;;
76903;SDS011;65865;51.698;-0.292;2023-04-24T12:08:30;3.00;;;0.77;;
76903;SDS011;65865;51.698;-0.292;2023-04-24T12:10:57;4.97;;;1.05;;
76903;SDS011;65865;51.698;-0.292;2023-04-24T12:13:25;3.72;;;1.10;;
76903;SDS011;65865;51.698;-0.292;2023-04-24T12:15:51;3.00;;;0.90;;
76903;SDS011;65865;51.698;-0.292;2023-04-24T12:18:17;4.03;;;0.70;;
76903;SDS011;65865;51.698;-0.292;2023-04-24T12:20:43;5.00;;;0.80;;
76903;SDS011;65865;51.698;-0.292;2023-04-24T12:23:09;5.68;;;0.90;;
76903;SDS011;65865;51.698;-0.292;2023-04-24T12:25:35;2.13;;;0.70;;
76903;SDS011;65865;51.698;-0.292;2023-04-24T12:30:31;4.30;;;0.93;;
76903;SDS011;65865;51.698;-0.292;2023-04-24T12:32:58;2.78;;;0.80;;
76903;SDS011;65865;51.698;-0.292;2023-04-24T12:35:26;4.15;;;0.90;;
76903;SDS011;65865;51.698;-0.292;2023-04-24T12:37:52;2.92;;;0.50;;
76903;SDS011;65865;51.698;-0.292;2023-04-24T12:40:19;4.35;;;0.90;;
76903;SDS011;65865;51.698;-0.292;2023-04-24T12:42:46;3.13;;;0.80;;
76903;SDS011;65865;51.698;-0.292;2023-04-24T12:45:14;5.00;;;0.63;;
76903;SDS011;65865;51.698;-0.292;2023-04-24T12:47:40;4.55;;;1.00;;
76903;SDS011;65865;51.698;-0.292;2023-04-24T12:50:10;4.32;;;0.93;;
76903;SDS011;65865;51.698;-0.292;2023-04-24T12:52:37;3.03;;;0.60;;
76903;SDS011;65865;51.698;-0.292;2023-04-24T12:55:04;4.00;;;0.88;;
76903;SDS011;65865;51.698;-0.292;2023-04-24T12:57:33;3.80;;;0.65;;
76903;SDS011;65865;51.698;-0.292;2023-04-24T12:59:59;4.22;;;0.77;;
76903;SDS011;65865;51.698;-0.292;2023-04-24T13:02:27;2.63;;;0.70;;
76903;SDS011;65865;51.698;-0.292;2023-04-24T13:04:54;3.40;;;0.98;;
76903;SDS011;65865;51.698;-0.292;2023-04-24T13:07:20;3.90;;;0.80;;
76903;SDS011;65865;51.698;-0.292;2023-04-24T13:09:47;3.63;;;0.70;;
76903;SDS011;65865;51.698;-0.292;2023-04-24T13:12:13;2.38;;;0.40;;
76903;SDS011;65865;51.698;-0.292;2023-04-24T13:14:39;4.00;;;0.80;;
76903;SDS011;65865;51.698;-0.292;2023-04-24T13:17:06;3.08;;;0.80;;
76903;SDS011;65865;51.698;-0.292;2023-04-24T13:19:36;4.63;;;0.73;;
76903;SDS011;65865;51.698;-0.292;2023-04-24T13:22:02;1.75;;;0.52;;
76903;SDS011;65865;51.698;-0.292;2023-04-24T13:24:29;3.22;;;0.50;;
76903;SDS011;65865;51.698;-0.292;2023-04-24T13:26:56;2.85;;;0.55;;
76903;SDS011;65865;51.698;-0.292;2023-04-24T13:29:23;1.63;;;0.40;;
76903;SDS011;65865;51.698;-0.292;2023-04-24T13:31:50;1.77;;;0.63;;
76903;SDS011;65865;51.698;-0.292;2023-04-24T13:34:17;4.63;;;0.80;;
76903;SDS011;65865;51.698;-0.292;2023-04-24T13:36:43;2.42;;;0.40;;
76903;SDS011;65865;51.698;-0.292;2023-04-24T13:39:10;2.97;;;0.50;;
76903;SDS011;65865;51.698;-0.292;2023-04-24T13:41:36;2.70;;;0.70;;
76903;SDS011;65865;51.698;-0.292;2023-04-24T13:44:02;2.80;;;0.60;;
76903;SDS011;65865;51.698;-0.292;2023-04-24T13:46:29;1.90;;;0.60;;
76903;SDS011;65865;51.698;-0.292;2023-04-24T13:48:55;1.80;;;0.40;;
76903;SDS011;65865;51.698;-0.292;2023-04-24T13:51:21;3.40;;;0.65;;
76903;SDS011;65865;51.698;-0.292;2023-04-24T13:53:47;2.72;;;0.70;;
76903;SDS011;65865;51.698;-0.292;2023-04-24T13:56:13;1.95;;;0.50;;
76903;SDS011;65865;51.698;-0.292;2023-04-24T13:58:40;1.83;;;0.73;;
76903;SDS011;65865;51.698;-0.292;2023-04-24T14:01:06;1.75;;;0.32;;
76903;SDS011;65865;51.698;-0.292;2023-04-24T14:03:33;3.53;;;0.60;;
76903;SDS011;65865;51.698;-0.292;2023-04-24T14:05:59;1.73;;;0.38;;
76903;SDS011;65865;51.698;-0.292;2023-04-24T14:08:25;1.63;;;0.40;;
76903;SDS011;65865;51.698;-0.292;2023-04-24T14:10:51;2.40;;;0.40;;
76903;SDS011;65865;51.698;-0.292;2023-04-24T14:13:17;3.03;;;0.60;;
76903;SDS011;65865;51.698;-0.292;2023-04-24T14:15:43;5.00;;;0.73;;
76903;SDS011;65865;51.698;-0.292;2023-04-24T14:18:09;1.52;;;0.50;;
76903;SDS011;65865;51.698;-0.292;2023-04-24T14:20:35;1.75;;;0.45;;
76903;SDS011;65865;51.698;-0.292;2023-04-24T14:23:01;2.97;;;0.47;;
76903;SDS011;65865;51.698;-0.292;2023-04-24T14:25:27;2.63;;;0.32;;
76903;SDS011;65865;51.698;-0.292;2023-04-24T14:27:53;1.15;;;0.40;;
76903;SDS011;65865;51.698;-0.292;2023-04-24T14:30:19;1.92;;;0.50;;
76903;SDS011;65865;51.698;-0.292;2023-04-24T14:32:46;1.75;;;0.50;;
76903;SDS011;65865;51.698;-0.292;2023-04-24T14:35:12;2.58;;;0.43;;
76903;SDS011;65865;51.698;-0.292;2023-04-24T14:37:39;3.60;;;0.55;;
76903;SDS011;65865;51.698;-0.292;2023-04-24T14:40:06;1.40;;;0.40;;
76903;SDS011;65865;51.698;-0.292;2023-04-24T14:42:33;2.00;;;0.40;;
76903;SDS011;65865;51.698;-0.292;2023-04-24T14:45:00;4.70;;;0.60;;
76903;SDS011;65865;51.698;-0.292;2023-04-24T14:47:26;1.80;;;0.40;;
76903;SDS011;65865;51.698;-0.292;2023-04-24T14:49:52;1.73;;;0.47;;